sensor_id;sensor_type;location;lat;lon;timestamp;temperature;humidity
20700;DHT22;10511;51.232;9.420;2023-02-08T00:01:44;-1.00;99.90
20700;DHT22;10511;51.232;9.420;2023-02-08T00:04:11;-1.10;99.90
20700;DHT22;10511;51.232;9.420;2023-02-08T00:06:39;-1.30;99.90
20700;DHT22;10511;51.232;9.420;2023-02-08T00:09:06;-1.50;99.90
20700;DHT22;10511;51.232;9.420;2023-02-08T00:11:33;-1.60;99.90
20700;DHT22;10511;51.232;9.420;2023-02-08T00:14:00;-1.50;99.90
20700;DHT22;10511;51.232;9.420;2023-02-08T00:16:27;-1.40;99.90
20700;DHT22;10511;51.232;9.420;2023-02-08T00:18:54;-1.30;99.90
20700;DHT22;10511;51.232;9.420;2023-02-08T00:21:21;-1.20;99.90
20700;DHT22;10511;51.232;9.420;2023-02-08T00:23:49;-1.40;99.90
20700;DHT22;10511;51.232;9.420;2023-02-08T00:26:16;-1.40;99.90
20700;DHT22;10511;51.232;9.420;2023-02-08T00:28:43;-1.50;99.90
20700;DHT22;10511;51.232;9.420;2023-02-08T00:31:10;-1.40;99.90
20700;DHT22;10511;51.232;9.420;2023-02-08T00:33:37;-1.40;99.90
20700;DHT22;10511;51.232;9.420;2023-02-08T00:36:07;-1.30;99.90
20700;DHT22;10511;51.232;9.420;2023-02-08T00:38:34;-1.20;99.90
20700;DHT22;10511;51.232;9.420;2023-02-08T00:41:02;-1.20;99.90
20700;DHT22;10511;51.232;9.420;2023-02-08T00:43:30;-1.30;99.90
20700;DHT22;10511;51.232;9.420;2023-02-08T00:45:58;-1.30;99.90
20700;DHT22;10511;51.232;9.420;2023-02-08T00:48:25;-1.30;99.90
20700;DHT22;10511;51.232;9.420;2023-02-08T00:50:57;-1.40;99.90
20700;DHT22;10511;51.232;9.420;2023-02-08T00:53:24;-1.80;99.90
20700;DHT22;10511;51.232;9.420;2023-02-08T00:55:51;-2.10;99.90
20700;DHT22;10511;51.232;9.420;2023-02-08T00:58:20;-2.20;99.90
20700;DHT22;10511;51.232;9.420;2023-02-08T01:00:50;-2.40;99.90
20700;DHT22;10511;51.232;9.420;2023-02-08T01:03:17;-2.50;99.90
20700;DHT22;10511;51.232;9.420;2023-02-08T01:05:44;-2.60;99.90
20700;DHT22;10511;51.232;9.420;2023-02-08T01:08:11;-2.60;99.90
20700;DHT22;10511;51.232;9.420;2023-02-08T01:10:37;-2.50;99.90
20700;DHT22;10511;51.232;9.420;2023-02-08T01:13:04;-2.30;99.90
20700;DHT22;10511;51.232;9.420;2023-02-08T01:15:33;-2.10;99.90
20700;DHT22;10511;51.232;9.420;2023-02-08T01:18:00;-2.00;99.90
20700;DHT22;10511;51.232;9.420;2023-02-08T01:20:27;-2.10;99.90
20700;DHT22;10511;51.232;9.420;2023-02-08T01:22:55;-2.30;99.90
20700;DHT22;10511;51.232;9.420;2023-02-08T01:25:22;-2.30;99.90
20700;DHT22;10511;51.232;9.420;2023-02-08T01:27:48;-2.20;99.90
20700;DHT22;10511;51.232;9.420;2023-02-08T01:30:16;-2.20;99.90
20700;DHT22;10511;51.232;9.420;2023-02-08T01:32:44;-2.20;99.90
20700;DHT22;10511;51.232;9.420;2023-02-08T01:35:11;-2.40;99.90
20700;DHT22;10511;51.232;9.420;2023-02-08T01:37:38;-2.70;99.90
20700;DHT22;10511;51.232;9.420;2023-02-08T01:40:06;-2.90;99.90
20700;DHT22;10511;51.232;9.420;2023-02-08T01:42:32;-3.00;99.90
20700;DHT22;10511;51.232;9.420;2023-02-08T01:45:27;-3.00;99.90
20700;DHT22;10511;51.232;9.420;2023-02-08T01:48:11;-3.10;99.90
20700;DHT22;10511;51.232;9.420;2023-02-08T01:50:43;-3.00;99.90
20700;DHT22;10511;51.232;9.420;2023-02-08T01:53:14;-3.00;99.90
20700;DHT22;10511;51.232;9.420;2023-02-08T01:55:45;-3.00;99.90
20700;DHT22;10511;51.232;9.420;2023-02-08T01:58:13;-3.10;99.90
20700;DHT22;10511;51.232;9.420;2023-02-08T02:00:41;-3.10;99.90
20700;DHT22;10511;51.232;9.420;2023-02-08T02:03:09;-3.20;99.90
20700;DHT22;10511;51.232;9.420;2023-02-08T02:05:39;-3.20;99.90
20700;DHT22;10511;51.232;9.420;2023-02-08T02:08:07;-3.20;99.90
20700;DHT22;10511;51.232;9.420;2023-02-08T02:10:36;-3.20;99.90
20700;DHT22;10511;51.232;9.420;2023-02-08T02:13:06;-3.10;99.90
20700;DHT22;10511;51.232;9.420;2023-02-08T02:15:33;-3.10;99.90
20700;DHT22;10511;51.232;9.420;2023-02-08T02:18:01;-3.00;99.90
20700;DHT22;10511;51.232;9.420;2023-02-08T02:20:39;-2.80;99.90
20700;DHT22;10511;51.232;9.420;2023-02-08T02:23:38;-2.70;99.90
20700;DHT22;10511;51.232;9.420;2023-02-08T02:26:39;-2.60;99.90
20700;DHT22;10511;51.232;9.420;2023-02-08T02:29:31;-2.50;99.90
20700;DHT22;10511;51.232;9.420;2023-02-08T02:32:13;-2.40;99.90
20700;DHT22;10511;51.232;9.420;2023-02-08T02:34:46;-2.50;99.90
20700;DHT22;10511;51.232;9.420;2023-02-08T02:37:29;-2.40;99.90
20700;DHT22;10511;51.232;9.420;2023-02-08T02:40:15;-2.30;99.90
20700;DHT22;10511;51.232;9.420;2023-02-08T02:42:53;-2.00;99.90
20700;DHT22;10511;51.232;9.420;2023-02-08T02:45:47;-2.00;99.90
20700;DHT22;10511;51.232;9.420;2023-02-08T02:48:21;-2.00;99.90
20700;DHT22;10511;51.232;9.420;2023-02-08T02:50:52;-1.90;99.90
20700;DHT22;10511;51.232;9.420;2023-02-08T02:53:25;-1.90;99.90
20700;DHT22;10511;51.232;9.420;2023-02-08T02:55:59;-2.00;99.90
20700;DHT22;10511;51.232;9.420;2023-02-08T02:58:27;-2.20;99.90
20700;DHT22;10511;51.232;9.420;2023-02-08T03:00:56;-2.30;99.90
20700;DHT22;10511;51.232;9.420;2023-02-08T03:03:26;-2.30;99.90
20700;DHT22;10511;51.232;9.420;2023-02-08T03:05:58;-2.20;99.90
20700;DHT22;10511;51.232;9.420;2023-02-08T03:11:30;-2.10;99.90
20700;DHT22;10511;51.232;9.420;2023-02-08T03:14:08;-2.10;99.90
20700;DHT22;10511;51.232;9.420;2023-02-08T03:16:51;-2.30;99.90
20700;DHT22;10511;51.232;9.420;2023-02-08T03:19:30;-2.70;99.90
20700;DHT22;10511;51.232;9.420;2023-02-08T03:22:05;-3.20;99.90
20700;DHT22;10511;51.232;9.420;2023-02-08T03:24:39;-3.40;99.90
20700;DHT22;10511;51.232;9.420;2023-02-08T03:27:11;-3.50;99.90
20700;DHT22;10511;51.232;9.420;2023-02-08T03:29:43;-3.50;99.90
20700;DHT22;10511;51.232;9.420;2023-02-08T03:32:16;-3.60;99.90
20700;DHT22;10511;51.232;9.420;2023-02-08T03:34:50;-3.50;99.90
20700;DHT22;10511;51.232;9.420;2023-02-08T03:37:20;-3.50;99.90
20700;DHT22;10511;51.232;9.420;2023-02-08T03:39:50;-3.50;99.90
20700;DHT22;10511;51.232;9.420;2023-02-08T03:42:20;-3.40;99.90
20700;DHT22;10511;51.232;9.420;2023-02-08T03:44:52;-3.20;99.90
20700;DHT22;10511;51.232;9.420;2023-02-08T03:47:23;-3.10;99.90
20700;DHT22;10511;51.232;9.420;2023-02-08T03:49:55;-3.20;99.90
20700;DHT22;10511;51.232;9.420;2023-02-08T03:52:24;-3.10;99.90
20700;DHT22;10511;51.232;9.420;2023-02-08T03:54:54;-3.00;99.90
20700;DHT22;10511;51.232;9.420;2023-02-08T03:57:24;-2.90;99.90
20700;DHT22;10511;51.232;9.420;2023-02-08T03:59:55;-2.70;99.90
20700;DHT22;10511;51.232;9.420;2023-02-08T04:02:25;-2.70;99.90
20700;DHT22;10511;51.232;9.420;2023-02-08T04:04:55;-2.60;99.90
20700;DHT22;10511;51.232;9.420;2023-02-08T04:07:23;-2.50;99.90
20700;DHT22;10511;51.232;9.420;2023-02-08T04:09:50;-2.50;99.90
20700;DHT22;10511;51.232;9.420;2023-02-08T04:12:17;-2.40;99.90
20700;DHT22;10511;51.232;9.420;2023-02-08T04:14:44;-2.50;99.90
20700;DHT22;10511;51.232;9.420;2023-02-08T04:17:11;-2.50;99.90
20700;DHT22;10511;51.232;9.420;2023-02-08T04:19:38;-2.50;99.90
20700;DHT22;10511;51.232;9.420;2023-02-08T04:22:06;-2.40;99.90
20700;DHT22;10511;51.232;9.420;2023-02-08T04:24:33;-2.80;99.90
20700;DHT22;10511;51.232;9.420;2023-02-08T04:27:00;-2.80;99.90
20700;DHT22;10511;51.232;9.420;2023-02-08T04:29:27;-2.70;99.90
20700;DHT22;10511;51.232;9.420;2023-02-08T04:31:54;-2.70;99.90
20700;DHT22;10511;51.232;9.420;2023-02-08T04:34:21;-3.00;99.90
20700;DHT22;10511;51.232;9.420;2023-02-08T04:36:47;-3.30;99.90
20700;DHT22;10511;51.232;9.420;2023-02-08T04:39:16;-3.50;99.90
20700;DHT22;10511;51.232;9.420;2023-02-08T04:41:42;-3.70;99.90
20700;DHT22;10511;51.232;9.420;2023-02-08T04:44:09;-3.80;99.90
20700;DHT22;10511;51.232;9.420;2023-02-08T04:46:36;-3.70;99.90
20700;DHT22;10511;51.232;9.420;2023-02-08T04:49:03;-3.50;99.90
20700;DHT22;10511;51.232;9.420;2023-02-08T04:51:30;-3.60;99.90
20700;DHT22;10511;51.232;9.420;2023-02-08T04:53:56;-3.70;99.90
20700;DHT22;10511;51.232;9.420;2023-02-08T04:56:25;-3.80;99.90
20700;DHT22;10511;51.232;9.420;2023-02-08T04:58:52;-3.80;99.90
20700;DHT22;10511;51.232;9.420;2023-02-08T05:01:19;-3.70;99.90
20700;DHT22;10511;51.232;9.420;2023-02-08T05:03:46;-3.60;99.90
20700;DHT22;10511;51.232;9.420;2023-02-08T05:06:13;-3.50;99.90
20700;DHT22;10511;51.232;9.420;2023-02-08T05:08:40;-3.40;99.90
20700;DHT22;10511;51.232;9.420;2023-02-08T05:11:07;-3.30;99.90
20700;DHT22;10511;51.232;9.420;2023-02-08T05:13:35;-3.30;99.90
20700;DHT22;10511;51.232;9.420;2023-02-08T05:16:09;-3.30;99.90
20700;DHT22;10511;51.232;9.420;2023-02-08T05:18:36;-3.40;99.90
20700;DHT22;10511;51.232;9.420;2023-02-08T05:21:03;-3.40;99.90
20700;DHT22;10511;51.232;9.420;2023-02-08T05:23:30;-3.40;99.90
20700;DHT22;10511;51.232;9.420;2023-02-08T05:25:57;-3.40;99.90
20700;DHT22;10511;51.232;9.420;2023-02-08T05:28:24;-3.40;99.90
20700;DHT22;10511;51.232;9.420;2023-02-08T05:30:53;-3.50;99.90
20700;DHT22;10511;51.232;9.420;2023-02-08T05:33:19;-3.30;99.90
20700;DHT22;10511;51.232;9.420;2023-02-08T05:35:46;-3.20;99.90
20700;DHT22;10511;51.232;9.420;2023-02-08T05:38:13;-3.20;99.90
20700;DHT22;10511;51.232;9.420;2023-02-08T05:40:40;-3.20;99.90
20700;DHT22;10511;51.232;9.420;2023-02-08T05:43:07;-3.10;99.90
20700;DHT22;10511;51.232;9.420;2023-02-08T05:45:34;-3.00;99.90
20700;DHT22;10511;51.232;9.420;2023-02-08T05:48:02;-3.00;99.90
20700;DHT22;10511;51.232;9.420;2023-02-08T05:50:29;-3.10;99.90
20700;DHT22;10511;51.232;9.420;2023-02-08T05:52:56;-3.30;99.90
20700;DHT22;10511;51.232;9.420;2023-02-08T05:55:23;-3.50;99.90
20700;DHT22;10511;51.232;9.420;2023-02-08T05:57:51;-3.40;99.90
20700;DHT22;10511;51.232;9.420;2023-02-08T06:00:18;-3.20;99.90
20700;DHT22;10511;51.232;9.420;2023-02-08T06:02:46;-3.10;99.90
20700;DHT22;10511;51.232;9.420;2023-02-08T06:05:14;-3.00;99.90
20700;DHT22;10511;51.232;9.420;2023-02-08T06:07:41;-2.90;99.90
20700;DHT22;10511;51.232;9.420;2023-02-08T06:10:08;-2.90;99.90
20700;DHT22;10511;51.232;9.420;2023-02-08T06:12:35;-3.00;99.90
20700;DHT22;10511;51.232;9.420;2023-02-08T06:15:02;-3.00;99.90
20700;DHT22;10511;51.232;9.420;2023-02-08T06:17:29;-3.00;99.90
20700;DHT22;10511;51.232;9.420;2023-02-08T06:19:56;-2.90;99.90
20700;DHT22;10511;51.232;9.420;2023-02-08T06:22:24;-2.90;99.90
20700;DHT22;10511;51.232;9.420;2023-02-08T06:24:51;-2.90;99.90
20700;DHT22;10511;51.232;9.420;2023-02-08T06:27:18;-3.10;99.90
20700;DHT22;10511;51.232;9.420;2023-02-08T06:29:45;-3.20;99.90
20700;DHT22;10511;51.232;9.420;2023-02-08T06:32:12;-3.20;99.90
20700;DHT22;10511;51.232;9.420;2023-02-08T06:34:38;-3.30;99.90
20700;DHT22;10511;51.232;9.420;2023-02-08T06:37:05;-3.50;99.90
20700;DHT22;10511;51.232;9.420;2023-02-08T06:39:34;-3.70;99.90
20700;DHT22;10511;51.232;9.420;2023-02-08T06:42:00;-3.80;99.90
20700;DHT22;10511;51.232;9.420;2023-02-08T06:44:27;-4.00;99.90
20700;DHT22;10511;51.232;9.420;2023-02-08T06:46:54;-4.00;99.90
20700;DHT22;10511;51.232;9.420;2023-02-08T06:49:21;-3.80;99.90
20700;DHT22;10511;51.232;9.420;2023-02-08T06:51:48;-3.70;99.90
20700;DHT22;10511;51.232;9.420;2023-02-08T06:54:15;-3.60;99.90
20700;DHT22;10511;51.232;9.420;2023-02-08T06:56:43;-3.50;99.90
20700;DHT22;10511;51.232;9.420;2023-02-08T06:59:10;-3.40;99.90
20700;DHT22;10511;51.232;9.420;2023-02-08T07:01:37;-3.20;99.90
20700;DHT22;10511;51.232;9.420;2023-02-08T07:04:04;-3.20;99.90
20700;DHT22;10511;51.232;9.420;2023-02-08T07:06:31;-3.20;99.90
20700;DHT22;10511;51.232;9.420;2023-02-08T07:08:58;-3.30;99.90
20700;DHT22;10511;51.232;9.420;2023-02-08T07:11:25;-3.30;99.90
20700;DHT22;10511;51.232;9.420;2023-02-08T07:13:53;-3.30;99.90
20700;DHT22;10511;51.232;9.420;2023-02-08T07:16:20;-3.20;99.90
20700;DHT22;10511;51.232;9.420;2023-02-08T07:18:47;-3.10;99.90
20700;DHT22;10511;51.232;9.420;2023-02-08T07:21:14;-3.00;99.90
20700;DHT22;10511;51.232;9.420;2023-02-08T07:23:41;-3.00;99.90
20700;DHT22;10511;51.232;9.420;2023-02-08T07:26:10;-2.90;99.90
20700;DHT22;10511;51.232;9.420;2023-02-08T07:28:39;-2.90;99.90
20700;DHT22;10511;51.232;9.420;2023-02-08T07:31:15;-2.80;99.90
20700;DHT22;10511;51.232;9.420;2023-02-08T07:33:43;-2.60;99.90
20700;DHT22;10511;51.232;9.420;2023-02-08T07:36:11;-2.50;99.90
20700;DHT22;10511;51.232;9.420;2023-02-08T07:38:38;-2.50;99.90
20700;DHT22;10511;51.232;9.420;2023-02-08T07:41:07;-2.50;99.90
20700;DHT22;10511;51.232;9.420;2023-02-08T07:43:34;-2.50;99.90
20700;DHT22;10511;51.232;9.420;2023-02-08T07:46:05;-2.50;99.90
20700;DHT22;10511;51.232;9.420;2023-02-08T07:48:34;-2.30;99.90
20700;DHT22;10511;51.232;9.420;2023-02-08T07:51:01;-2.40;99.90
20700;DHT22;10511;51.232;9.420;2023-02-08T07:53:28;-2.60;99.90
20700;DHT22;10511;51.232;9.420;2023-02-08T07:55:56;-2.70;99.90
20700;DHT22;10511;51.232;9.420;2023-02-08T07:58:23;-2.80;99.90
20700;DHT22;10511;51.232;9.420;2023-02-08T08:00:50;-2.60;99.90
20700;DHT22;10511;51.232;9.420;2023-02-08T08:03:17;-2.50;99.90
20700;DHT22;10511;51.232;9.420;2023-02-08T08:05:46;-2.50;99.90
20700;DHT22;10511;51.232;9.420;2023-02-08T08:08:12;-2.40;99.90
20700;DHT22;10511;51.232;9.420;2023-02-08T08:10:40;-2.30;99.90
20700;DHT22;10511;51.232;9.420;2023-02-08T08:13:06;-2.20;99.90
20700;DHT22;10511;51.232;9.420;2023-02-08T08:15:34;-2.10;99.90
20700;DHT22;10511;51.232;9.420;2023-02-08T08:18:01;-2.10;99.90
20700;DHT22;10511;51.232;9.420;2023-02-08T08:20:27;-2.10;99.90
20700;DHT22;10511;51.232;9.420;2023-02-08T08:22:56;-2.10;99.90
20700;DHT22;10511;51.232;9.420;2023-02-08T08:25:23;-2.10;99.90
20700;DHT22;10511;51.232;9.420;2023-02-08T08:27:49;-2.00;99.90
20700;DHT22;10511;51.232;9.420;2023-02-08T08:30:16;-1.90;99.90
20700;DHT22;10511;51.232;9.420;2023-02-08T08:32:43;-1.90;99.90
20700;DHT22;10511;51.232;9.420;2023-02-08T08:35:10;-1.90;99.90
20700;DHT22;10511;51.232;9.420;2023-02-08T08:37:37;-2.10;99.90
20700;DHT22;10511;51.232;9.420;2023-02-08T08:40:07;-2.00;99.90
20700;DHT22;10511;51.232;9.420;2023-02-08T08:42:34;-1.90;99.90
20700;DHT22;10511;51.232;9.420;2023-02-08T08:45:02;-1.80;99.90
20700;DHT22;10511;51.232;9.420;2023-02-08T08:47:29;-1.80;99.90
20700;DHT22;10511;51.232;9.420;2023-02-08T08:49:56;-1.80;99.90
20700;DHT22;10511;51.232;9.420;2023-02-08T08:52:23;-1.80;99.90
20700;DHT22;10511;51.232;9.420;2023-02-08T08:54:50;-1.80;99.90
20700;DHT22;10511;51.232;9.420;2023-02-08T08:57:18;-1.70;99.90
20700;DHT22;10511;51.232;9.420;2023-02-08T08:59:45;-1.60;99.90
20700;DHT22;10511;51.232;9.420;2023-02-08T09:02:12;-1.50;99.90
20700;DHT22;10511;51.232;9.420;2023-02-08T09:04:40;-1.50;99.90
20700;DHT22;10511;51.232;9.420;2023-02-08T09:07:07;-1.50;99.90
20700;DHT22;10511;51.232;9.420;2023-02-08T09:09:34;-1.50;99.90
20700;DHT22;10511;51.232;9.420;2023-02-08T09:12:01;-1.50;99.90
20700;DHT22;10511;51.232;9.420;2023-02-08T09:14:29;-1.50;99.90
20700;DHT22;10511;51.232;9.420;2023-02-08T09:16:56;-1.40;99.90
20700;DHT22;10511;51.232;9.420;2023-02-08T09:19:23;-1.30;99.90
20700;DHT22;10511;51.232;9.420;2023-02-08T09:21:52;-1.40;99.90
20700;DHT22;10511;51.232;9.420;2023-02-08T09:24:19;-1.30;99.90
20700;DHT22;10511;51.232;9.420;2023-02-08T09:26:46;-1.30;99.90
20700;DHT22;10511;51.232;9.420;2023-02-08T09:29:12;-1.20;99.90
20700;DHT22;10511;51.232;9.420;2023-02-08T09:31:41;-1.20;99.90
20700;DHT22;10511;51.232;9.420;2023-02-08T09:34:08;-1.00;99.90
20700;DHT22;10511;51.232;9.420;2023-02-08T09:36:37;-0.80;99.90
20700;DHT22;10511;51.232;9.420;2023-02-08T09:39:06;-0.50;99.90
20700;DHT22;10511;51.232;9.420;2023-02-08T09:44:38;-0.40;99.90
20700;DHT22;10511;51.232;9.420;2023-02-08T09:47:12;-0.40;99.90
20700;DHT22;10511;51.232;9.420;2023-02-08T09:49:46;-0.30;99.90
20700;DHT22;10511;51.232;9.420;2023-02-08T09:52:20;-0.20;99.90
20700;DHT22;10511;51.232;9.420;2023-02-08T09:54:53;-0.10;99.90
20700;DHT22;10511;51.232;9.420;2023-02-08T09:57:25;0.10;99.90
20700;DHT22;10511;51.232;9.420;2023-02-08T09:59:56;0.40;99.90
20700;DHT22;10511;51.232;9.420;2023-02-08T10:02:27;0.60;99.90
20700;DHT22;10511;51.232;9.420;2023-02-08T10:04:57;0.80;99.90
20700;DHT22;10511;51.232;9.420;2023-02-08T10:07:26;1.00;99.90
20700;DHT22;10511;51.232;9.420;2023-02-08T10:09:55;1.20;99.90
20700;DHT22;10511;51.232;9.420;2023-02-08T10:12:33;1.40;99.90
20700;DHT22;10511;51.232;9.420;2023-02-08T10:15:11;1.60;99.90
20700;DHT22;10511;51.232;9.420;2023-02-08T10:20:46;1.90;99.90
20700;DHT22;10511;51.232;9.420;2023-02-08T10:23:30;2.00;99.90
20700;DHT22;10511;51.232;9.420;2023-02-08T10:26:11;1.70;99.90
20700;DHT22;10511;51.232;9.420;2023-02-08T10:28:56;1.90;99.90
20700;DHT22;10511;51.232;9.420;2023-02-08T10:31:36;2.00;99.90
20700;DHT22;10511;51.232;9.420;2023-02-08T10:34:14;1.80;99.90
20700;DHT22;10511;51.232;9.420;2023-02-08T10:36:47;1.60;99.90
20700;DHT22;10511;51.232;9.420;2023-02-08T10:39:15;1.60;99.90
20700;DHT22;10511;51.232;9.420;2023-02-08T10:41:43;1.50;99.90
20700;DHT22;10511;51.232;9.420;2023-02-08T10:44:19;1.40;99.90
20700;DHT22;10511;51.232;9.420;2023-02-08T10:46:49;1.50;99.90
20700;DHT22;10511;51.232;9.420;2023-02-08T10:49:20;1.50;99.90
20700;DHT22;10511;51.232;9.420;2023-02-08T10:51:52;1.80;99.90
20700;DHT22;10511;51.232;9.420;2023-02-08T10:54:19;1.90;99.90
20700;DHT22;10511;51.232;9.420;2023-02-08T10:56:47;1.90;99.90
20700;DHT22;10511;51.232;9.420;2023-02-08T10:59:19;1.90;99.90
20700;DHT22;10511;51.232;9.420;2023-02-08T11:01:48;2.30;99.90
20700;DHT22;10511;51.232;9.420;2023-02-08T11:04:16;2.50;99.90
20700;DHT22;10511;51.232;9.420;2023-02-08T11:06:44;2.90;99.90
20700;DHT22;10511;51.232;9.420;2023-02-08T11:09:25;3.30;99.90
20700;DHT22;10511;51.232;9.420;2023-02-08T11:11:52;3.10;99.90
20700;DHT22;10511;51.232;9.420;2023-02-08T11:14:24;2.80;99.90
20700;DHT22;10511;51.232;9.420;2023-02-08T11:16:52;3.10;99.90
20700;DHT22;10511;51.232;9.420;2023-02-08T11:19:24;3.60;99.90
20700;DHT22;10511;51.232;9.420;2023-02-08T11:21:53;4.00;99.90
20700;DHT22;10511;51.232;9.420;2023-02-08T11:24:27;4.00;99.90
20700;DHT22;10511;51.232;9.420;2023-02-08T11:26:55;4.00;99.90
20700;DHT22;10511;51.232;9.420;2023-02-08T11:29:24;3.60;99.90
20700;DHT22;10511;51.232;9.420;2023-02-08T11:31:59;3.80;99.90
20700;DHT22;10511;51.232;9.420;2023-02-08T11:34:28;4.20;99.90
20700;DHT22;10511;51.232;9.420;2023-02-08T11:36:56;4.40;99.90
20700;DHT22;10511;51.232;9.420;2023-02-08T11:39:28;4.10;99.90
20700;DHT22;10511;51.232;9.420;2023-02-08T11:41:59;3.90;99.90
20700;DHT22;10511;51.232;9.420;2023-02-08T11:44:27;4.20;99.90
20700;DHT22;10511;51.232;9.420;2023-02-08T11:46:56;4.60;99.90
20700;DHT22;10511;51.232;9.420;2023-02-08T11:49:29;4.80;99.90
20700;DHT22;10511;51.232;9.420;2023-02-08T11:51:57;4.80;99.90
20700;DHT22;10511;51.232;9.420;2023-02-08T11:54:34;5.10;99.90
20700;DHT22;10511;51.232;9.420;2023-02-08T11:57:09;5.20;99.90
20700;DHT22;10511;51.232;9.420;2023-02-08T11:59:37;4.50;99.90
20700;DHT22;10511;51.232;9.420;2023-02-08T12:02:27;4.50;99.90
20700;DHT22;10511;51.232;9.420;2023-02-08T12:04:54;4.80;99.90
20700;DHT22;10511;51.232;9.420;2023-02-08T12:07:31;4.80;99.90
20700;DHT22;10511;51.232;9.420;2023-02-08T12:10:20;5.10;99.90
20700;DHT22;10511;51.232;9.420;2023-02-08T12:13:15;5.50;99.90
20700;DHT22;10511;51.232;9.420;2023-02-08T12:15:54;5.70;99.90
20700;DHT22;10511;51.232;9.420;2023-02-08T12:18:38;5.50;99.90
20700;DHT22;10511;51.232;9.420;2023-02-08T12:21:13;5.80;99.90
20700;DHT22;10511;51.232;9.420;2023-02-08T12:23:51;6.00;99.90
20700;DHT22;10511;51.232;9.420;2023-02-08T12:26:38;6.10;99.90
20700;DHT22;10511;51.232;9.420;2023-02-08T12:29:29;5.70;99.90
20700;DHT22;10511;51.232;9.420;2023-02-08T12:32:08;5.50;99.90
20700;DHT22;10511;51.232;9.420;2023-02-08T12:34:53;5.10;99.90
20700;DHT22;10511;51.232;9.420;2023-02-08T12:37:35;5.40;99.90
20700;DHT22;10511;51.232;9.420;2023-02-08T12:40:37;5.70;99.90
20700;DHT22;10511;51.232;9.420;2023-02-08T12:43:47;5.70;99.90
20700;DHT22;10511;51.232;9.420;2023-02-08T12:46:21;6.20;99.90
20700;DHT22;10511;51.232;9.420;2023-02-08T12:49:04;6.50;99.90
20700;DHT22;10511;51.232;9.420;2023-02-08T12:51:40;6.70;99.90
20700;DHT22;10511;51.232;9.420;2023-02-08T12:54:12;6.90;99.30
20700;DHT22;10511;51.232;9.420;2023-02-08T12:56:43;6.50;96.70
20700;DHT22;10511;51.232;9.420;2023-02-08T12:59:20;6.50;98.50
20700;DHT22;10511;51.232;9.420;2023-02-08T13:01:52;6.60;98.70
20700;DHT22;10511;51.232;9.420;2023-02-08T13:04:25;6.60;97.40
20700;DHT22;10511;51.232;9.420;2023-02-08T13:06:57;6.50;96.50
20700;DHT22;10511;51.232;9.420;2023-02-08T13:09:37;6.30;95.80
20700;DHT22;10511;51.232;9.420;2023-02-08T13:12:10;6.30;96.70
20700;DHT22;10511;51.232;9.420;2023-02-08T13:14:44;6.30;97.10
20700;DHT22;10511;51.232;9.420;2023-02-08T13:17:16;6.30;97.00
20700;DHT22;10511;51.232;9.420;2023-02-08T13:19:53;5.90;96.20
20700;DHT22;10511;51.232;9.420;2023-02-08T13:22:21;5.80;96.00
20700;DHT22;10511;51.232;9.420;2023-02-08T13:24:50;5.90;96.90
20700;DHT22;10511;51.232;9.420;2023-02-08T13:27:20;5.90;96.60
20700;DHT22;10511;51.232;9.420;2023-02-08T13:29:50;5.70;95.60
20700;DHT22;10511;51.232;9.420;2023-02-08T13:32:21;5.80;95.20
20700;DHT22;10511;51.232;9.420;2023-02-08T13:34:57;5.70;96.30
20700;DHT22;10511;51.232;9.420;2023-02-08T13:37:26;5.70;95.40
20700;DHT22;10511;51.232;9.420;2023-02-08T13:40:00;5.80;94.60
20700;DHT22;10511;51.232;9.420;2023-02-08T13:42:29;5.70;95.70
20700;DHT22;10511;51.232;9.420;2023-02-08T13:45:01;5.50;94.90
20700;DHT22;10511;51.232;9.420;2023-02-08T13:47:30;5.60;95.30
20700;DHT22;10511;51.232;9.420;2023-02-08T13:49:58;5.70;95.30
20700;DHT22;10511;51.232;9.420;2023-02-08T13:52:46;5.70;95.60
20700;DHT22;10511;51.232;9.420;2023-02-08T13:55:43;5.70;95.00
20700;DHT22;10511;51.232;9.420;2023-02-08T14:01:32;5.50;94.70
20700;DHT22;10511;51.232;9.420;2023-02-08T14:04:34;5.50;94.50
20700;DHT22;10511;51.232;9.420;2023-02-08T14:07:11;5.50;94.40
20700;DHT22;10511;51.232;9.420;2023-02-08T14:09:47;5.30;92.50
20700;DHT22;10511;51.232;9.420;2023-02-08T14:12:21;5.20;94.10
20700;DHT22;10511;51.232;9.420;2023-02-08T14:15:27;5.20;93.80
20700;DHT22;10511;51.232;9.420;2023-02-08T14:17:56;5.20;92.70
20700;DHT22;10511;51.232;9.420;2023-02-08T14:20:29;5.10;92.80
20700;DHT22;10511;51.232;9.420;2023-02-08T14:22:58;5.10;93.80
20700;DHT22;10511;51.232;9.420;2023-02-08T14:25:36;5.20;93.40
20700;DHT22;10511;51.232;9.420;2023-02-08T14:28:04;5.10;92.60
20700;DHT22;10511;51.232;9.420;2023-02-08T14:30:35;5.10;93.00
20700;DHT22;10511;51.232;9.420;2023-02-08T14:33:12;5.10;93.70
20700;DHT22;10511;51.232;9.420;2023-02-08T14:35:51;5.10;93.00
20700;DHT22;10511;51.232;9.420;2023-02-08T14:41:43;4.90;93.10
20700;DHT22;10511;51.232;9.420;2023-02-08T14:47:51;4.80;93.00
20700;DHT22;10511;51.232;9.420;2023-02-08T14:50:24;4.80;93.50
20700;DHT22;10511;51.232;9.420;2023-02-08T14:52:59;4.80;92.70
20700;DHT22;10511;51.232;9.420;2023-02-08T14:55:31;4.60;92.00
20700;DHT22;10511;51.232;9.420;2023-02-08T14:58:00;4.50;92.40
20700;DHT22;10511;51.232;9.420;2023-02-08T15:00:32;4.40;92.70
20700;DHT22;10511;51.232;9.420;2023-02-08T15:03:00;4.40;92.90
20700;DHT22;10511;51.232;9.420;2023-02-08T15:05:34;4.40;92.90
20700;DHT22;10511;51.232;9.420;2023-02-08T15:08:03;4.30;91.90
20700;DHT22;10511;51.232;9.420;2023-02-08T15:10:31;4.20;91.70
20700;DHT22;10511;51.232;9.420;2023-02-08T15:13:03;4.20;92.00
20700;DHT22;10511;51.232;9.420;2023-02-08T15:15:33;4.20;92.30
20700;DHT22;10511;51.232;9.420;2023-02-08T15:18:02;4.20;92.60
20700;DHT22;10511;51.232;9.420;2023-02-08T15:20:33;4.10;92.30
20700;DHT22;10511;51.232;9.420;2023-02-08T15:23:03;4.10;92.20
20700;DHT22;10511;51.232;9.420;2023-02-08T15:25:32;4.00;92.30
20700;DHT22;10511;51.232;9.420;2023-02-08T15:28:00;4.00;92.60
20700;DHT22;10511;51.232;9.420;2023-02-08T15:30:32;4.00;92.50
20700;DHT22;10511;51.232;9.420;2023-02-08T15:33:00;4.00;92.40
20700;DHT22;10511;51.232;9.420;2023-02-08T15:35:32;3.90;92.80
20700;DHT22;10511;51.232;9.420;2023-02-08T15:38:00;3.90;93.00
20700;DHT22;10511;51.232;9.420;2023-02-08T15:40:31;3.90;93.00
20700;DHT22;10511;51.232;9.420;2023-02-08T15:43:07;3.80;93.30
20700;DHT22;10511;51.232;9.420;2023-02-08T15:45:36;3.80;93.80
20700;DHT22;10511;51.232;9.420;2023-02-08T15:48:04;3.70;93.30
20700;DHT22;10511;51.232;9.420;2023-02-08T15:50:34;3.70;93.70
20700;DHT22;10511;51.232;9.420;2023-02-08T15:53:03;3.70;93.60
20700;DHT22;10511;51.232;9.420;2023-02-08T15:55:34;3.60;93.80
20700;DHT22;10511;51.232;9.420;2023-02-08T15:58:05;3.60;93.90
20700;DHT22;10511;51.232;9.420;2023-02-08T16:00:35;3.50;93.70
20700;DHT22;10511;51.232;9.420;2023-02-08T16:03:05;3.50;94.00
20700;DHT22;10511;51.232;9.420;2023-02-08T16:05:35;3.40;94.30
20700;DHT22;10511;51.232;9.420;2023-02-08T16:08:02;3.40;94.50
20700;DHT22;10511;51.232;9.420;2023-02-08T16:10:32;3.30;94.60
20700;DHT22;10511;51.232;9.420;2023-02-08T16:13:06;3.20;94.40
20700;DHT22;10511;51.232;9.420;2023-02-08T16:15:39;3.20;94.30
20700;DHT22;10511;51.232;9.420;2023-02-08T16:21:17;3.10;94.50
20700;DHT22;10511;51.232;9.420;2023-02-08T16:23:48;3.00;94.80